createdAt,value
2023-05-05T00:00:35.302Z,14.70
2023-05-05T00:03:25.266Z,14.60
2023-05-05T00:06:14.719Z,14.60
2023-05-05T00:09:03.389Z,14.60
2023-05-05T00:11:52.091Z,14.60
2023-05-05T00:14:42.524Z,14.80
2023-05-05T00:17:31.365Z,14.80
2023-05-05T00:20:20.102Z,14.60
2023-05-05T00:23:08.810Z,14.60
2023-05-05T00:25:57.495Z,14.60
2023-05-05T00:28:46.354Z,14.60
2023-05-05T00:31:36.692Z,14.60
2023-05-05T00:34:25.465Z,14.70
2023-05-05T00:37:14.256Z,14.80
2023-05-05T00:40:03.345Z,14.90
2023-05-05T00:42:52.494Z,15.10
2023-05-05T00:45:42.980Z,15.10
2023-05-05T00:48:33.788Z,15.10
2023-05-05T00:51:22.989Z,15.30
2023-05-05T00:54:11.752Z,15.30
2023-05-05T00:57:00.405Z,15.50
2023-05-05T00:59:52.547Z,15.50
2023-05-05T01:02:42.407Z,15.60
2023-05-05T01:05:39.514Z,15.50
2023-05-05T01:08:38.334Z,15.40
2023-05-05T01:11:32.390Z,15.20
2023-05-05T01:14:26.082Z,15.00
2023-05-05T01:17:18.991Z,14.70
2023-05-05T01:20:18.410Z,14.50
2023-05-05T01:23:10.892Z,14.40
2023-05-05T01:26:34.809Z,14.30
2023-05-05T01:29:39.759Z,14.30
2023-05-05T01:32:33.027Z,14.40
2023-05-05T01:35:28.514Z,14.40
2023-05-05T01:38:20.534Z,14.40
2023-05-05T01:41:14.246Z,14.50
2023-05-05T01:44:06.126Z,14.40
2023-05-05T01:46:55.745Z,14.40
2023-05-05T01:49:47.926Z,14.40
2023-05-05T01:52:38.781Z,14.30
2023-05-05T01:55:28.680Z,14.20
2023-05-05T01:58:18.768Z,14.30
2023-05-05T02:01:07.958Z,14.30
2023-05-05T02:03:58.582Z,14.30
2023-05-05T02:06:53.050Z,14.30
2023-05-05T02:09:43.813Z,14.30
2023-05-05T02:12:33.724Z,14.30
2023-05-05T02:15:24.925Z,14.30
2023-05-05T02:18:14.293Z,14.30
2023-05-05T02:21:03.359Z,14.30
2023-05-05T02:23:54.168Z,14.30
2023-05-05T02:26:47.430Z,14.30
2023-05-05T02:29:39.087Z,14.20
2023-05-05T02:32:40.659Z,14.20
2023-05-05T02:35:35.216Z,14.10
2023-05-05T02:38:29.521Z,14.10
2023-05-05T02:41:22.886Z,14.10
2023-05-05T02:44:13.951Z,14.10
2023-05-05T02:47:05.133Z,14.10
2023-05-05T02:49:53.803Z,14.10
2023-05-05T02:52:42.726Z,14.00
2023-05-05T02:55:38.943Z,13.90
2023-05-05T02:58:32.692Z,13.90
2023-05-05T03:01:30.951Z,13.90
2023-05-05T03:04:27.797Z,13.80
2023-05-05T03:07:26.531Z,13.80
2023-05-05T03:10:19.633Z,13.70
2023-05-05T03:13:11.012Z,13.60
2023-05-05T03:16:06.628Z,13.60
2023-05-05T03:18:57.023Z,13.50
2023-05-05T03:21:45.919Z,13.50
2023-05-05T03:24:34.620Z,13.50
2023-05-05T03:27:23.315Z,13.40
2023-05-05T03:30:13.326Z,13.50
2023-05-05T03:33:03.435Z,13.40
2023-05-05T03:35:52.253Z,13.30
2023-05-05T03:38:40.948Z,13.20
2023-05-05T03:41:29.968Z,13.20
2023-05-05T03:44:18.762Z,13.10
2023-05-05T03:47:07.727Z,13.10
2023-05-05T03:49:57.867Z,13.00
2023-05-05T03:52:46.578Z,13.00
2023-05-05T03:55:35.420Z,13.00
2023-05-05T03:58:24.160Z,12.90
2023-05-05T04:01:12.954Z,12.90
2023-05-05T04:04:01.680Z,12.80
2023-05-05T04:06:51.833Z,12.80
2023-05-05T04:09:44.554Z,12.80
2023-05-05T04:12:33.315Z,12.80
2023-05-05T04:15:22.090Z,12.80
2023-05-05T04:18:10.843Z,12.70
2023-05-05T04:20:59.578Z,12.80
2023-05-05T04:23:50.072Z,12.70
2023-05-05T04:26:38.874Z,12.80
2023-05-05T04:29:27.530Z,12.80
2023-05-05T04:32:16.233Z,12.70
2023-05-05T04:35:05.180Z,12.80
2023-05-05T04:37:54.970Z,12.80
2023-05-05T04:40:45.037Z,12.80
2023-05-05T04:43:33.853Z,12.80
2023-05-05T04:46:23.104Z,13.00
2023-05-05T04:49:11.869Z,13.10
2023-05-05T04:52:00.923Z,13.20
2023-05-05T04:54:49.634Z,13.30
2023-05-05T04:57:39.736Z,13.50
2023-05-05T05:00:28.425Z,13.60
2023-05-05T05:03:17.385Z,13.70
2023-05-05T05:06:06.373Z,13.70
2023-05-05T05:08:55.031Z,13.80
2023-05-05T05:11:43.690Z,13.90
2023-05-05T05:14:38.243Z,14.00
2023-05-05T05:17:27.119Z,14.20
2023-05-05T05:20:15.815Z,14.30
2023-05-05T05:23:04.678Z,14.40
2023-05-05T05:25:53.818Z,14.50
2023-05-05T05:28:42.969Z,14.70
2023-05-05T05:31:45.153Z,14.80
2023-05-05T05:34:33.865Z,15.00
2023-05-05T05:37:22.575Z,15.20
2023-05-05T05:40:11.867Z,15.40
2023-05-05T05:43:01.176Z,15.70
2023-05-05T06:01:40.965Z,18.40
2023-05-05T06:07:11.694Z,18.50
2023-05-05T06:10:14.676Z,18.50
2023-05-05T06:13:09.737Z,18.40
2023-05-05T06:16:16.866Z,18.10
2023-05-05T08:19:36.666Z,21.80
2023-05-05T08:22:25.698Z,22.40
2023-05-05T08:25:15.787Z,22.80
2023-05-05T08:28:05.662Z,23.10
2023-05-05T08:30:58.558Z,23.00
2023-05-05T08:33:47.386Z,23.10
2023-05-05T08:36:36.334Z,23.20
2023-05-05T08:39:25.057Z,23.50
2023-05-05T08:42:22.263Z,23.50
2023-05-05T08:45:17.918Z,23.30
2023-05-05T08:48:09.843Z,23.10
2023-05-05T08:51:02.577Z,23.10
2023-05-05T08:53:59.714Z,22.80
2023-05-05T08:56:51.989Z,22.70
2023-05-05T08:59:41.619Z,23.10
2023-05-05T09:02:31.794Z,23.20
2023-05-05T09:20:05.572Z,22.20
2023-05-05T09:22:54.082Z,22.40
2023-05-05T09:25:43.790Z,22.60
2023-05-05T09:28:32.503Z,22.50
2023-05-05T09:31:21.093Z,22.50
2023-05-05T09:34:16.601Z,22.80
2023-05-05T09:37:06.673Z,22.60
2023-05-05T09:39:56.156Z,22.30
2023-05-05T09:42:45.404Z,22.60
2023-05-05T09:45:33.942Z,22.70
2023-05-05T09:48:26.902Z,22.90
2023-05-05T09:51:15.697Z,23.00
2023-05-05T09:54:05.643Z,23.20
2023-05-05T09:56:54.313Z,23.40
2023-05-05T09:59:56.631Z,23.20
2023-05-05T10:02:45.268Z,23.30
2023-05-05T10:05:34.447Z,23.60
2023-05-05T10:08:24.495Z,23.50
2023-05-05T10:11:15.709Z,23.10
2023-05-05T10:14:08.995Z,23.30
2023-05-05T10:21:42.176Z,22.80
2023-05-05T10:28:38.573Z,23.60
2023-05-05T10:31:34.722Z,22.90
2023-05-05T10:34:30.360Z,22.80
2023-05-05T10:37:21.281Z,22.80
2023-05-05T10:40:11.922Z,22.70
2023-05-05T10:43:04.260Z,22.60
2023-05-05T10:45:55.263Z,22.30
2023-05-05T11:16:58.136Z,22.90
2023-05-05T11:19:48.368Z,23.20
2023-05-05T11:23:17.293Z,23.20
2023-05-05T11:26:05.879Z,23.30
2023-05-05T11:29:04.859Z,23.70
2023-05-05T11:32:13.749Z,23.60
2023-05-05T11:35:02.945Z,23.50
2023-05-05T11:38:04.490Z,23.40
2023-05-05T11:40:56.833Z,23.50
2023-05-05T11:43:46.006Z,23.70
2023-05-05T11:46:34.577Z,23.70
2023-05-05T11:49:30.454Z,23.70
2023-05-05T11:52:19.052Z,23.80
2023-05-05T11:55:08.643Z,23.80
2023-05-05T11:57:57.317Z,24.00
2023-05-05T12:00:45.957Z,24.20
2023-05-05T12:03:37.038Z,24.30
2023-05-05T12:06:28.293Z,24.20
2023-05-05T12:09:18.039Z,24.10
2023-05-05T12:12:07.514Z,24.10
2023-05-05T12:14:56.103Z,24.40
2023-05-05T12:17:47.040Z,25.10
2023-05-05T12:20:36.725Z,26.50
2023-05-05T12:23:30.094Z,27.10
2023-05-05T12:26:27.102Z,28.20
2023-05-05T12:29:25.705Z,27.60
2023-05-05T12:32:22.043Z,26.50
2023-05-05T12:35:11.643Z,27.10
2023-05-05T12:38:00.434Z,28.20
2023-05-05T12:40:53.949Z,28.70
2023-05-05T12:43:42.645Z,29.50
2023-05-05T12:46:32.213Z,29.20
2023-05-05T15:35:34.484Z,18.10
2023-05-05T15:38:26.702Z,17.90
2023-05-05T15:44:27.214Z,17.90
2023-05-05T15:47:19.933Z,17.90
2023-05-05T15:50:44.487Z,18.00
2023-05-05T15:53:41.653Z,18.00
2023-05-05T15:56:27.995Z,18.10
2023-05-05T15:59:16.873Z,18.20
2023-05-05T16:02:09.033Z,18.30
2023-05-05T16:04:58.269Z,18.30
2023-05-05T16:07:47.083Z,18.30
2023-05-05T16:10:37.318Z,18.30
2023-05-05T16:13:28.109Z,18.20
2023-05-05T16:16:16.895Z,18.00
2023-05-05T16:19:05.774Z,17.70
2023-05-05T16:21:54.664Z,17.40
2023-05-05T16:24:44.445Z,17.20
2023-05-05T16:27:35.160Z,17.00
2023-05-05T16:30:28.164Z,16.90
2023-05-05T16:33:18.355Z,16.80
2023-05-05T16:36:07.512Z,16.80
2023-05-05T16:38:56.824Z,16.70
2023-05-05T16:41:46.273Z,16.60
2023-05-05T16:44:36.372Z,16.60
2023-05-05T16:47:25.416Z,16.60
2023-05-05T16:50:14.242Z,16.60
2023-05-05T16:53:03.043Z,16.70
2023-05-05T16:55:52.732Z,16.90
2023-05-05T16:58:41.684Z,17.00
2023-05-05T17:01:32.194Z,17.10
2023-05-05T17:04:21.204Z,17.10
2023-05-05T17:07:10.468Z,17.20
2023-05-05T17:09:59.418Z,17.10
2023-05-05T17:12:48.403Z,17.00
2023-05-05T17:15:37.830Z,16.90
2023-05-05T17:18:28.204Z,16.80
2023-05-05T17:21:17.063Z,16.60
2023-05-05T17:24:06.961Z,16.60
2023-05-05T17:26:56.389Z,16.50
2023-05-05T17:29:45.764Z,16.50
2023-05-05T17:32:34.592Z,16.50
2023-05-05T17:35:24.933Z,16.50
2023-05-05T17:38:13.762Z,16.60
2023-05-05T17:41:02.661Z,16.60
2023-05-05T17:43:52.240Z,16.60
2023-05-05T17:46:41.054Z,16.50
2023-05-05T17:49:29.949Z,16.50
2023-05-05T17:52:28.076Z,16.40
2023-05-05T17:55:18.344Z,16.30
2023-05-05T17:58:11.537Z,16.30
2023-05-05T18:01:00.775Z,16.30
2023-05-05T18:03:50.284Z,16.20
2023-05-05T18:06:39.178Z,16.20
2023-05-05T18:09:29.403Z,16.20
2023-05-05T18:12:19.042Z,16.20
2023-05-05T18:15:09.309Z,16.20
2023-05-05T18:17:58.229Z,16.10
2023-05-05T18:20:47.357Z,16.10
2023-05-05T18:23:36.486Z,16.00
2023-05-05T18:26:27.747Z,16.00
2023-05-05T18:29:17.998Z,15.90
2023-05-05T18:32:07.583Z,15.90
2023-05-05T18:34:56.499Z,15.90
2023-05-05T18:37:45.666Z,15.80
2023-05-05T19:27:20.872Z,15.00
2023-05-05T19:31:15.128Z,14.90
2023-05-05T19:34:06.126Z,15.00
2023-05-05T19:36:54.999Z,14.90
2023-05-05T19:40:10.743Z,14.90
2023-05-05T19:44:14.618Z,14.80
2023-05-05T19:47:07.250Z,14.80
2023-05-05T19:49:58.044Z,14.80
2023-05-05T19:55:54.047Z,14.80
2023-05-05T19:58:56.183Z,14.80
2023-05-05T20:01:44.813Z,14.90
2023-05-05T20:04:34.858Z,14.80
2023-05-05T20:07:23.409Z,14.80
2023-05-05T20:10:14.255Z,14.80
2023-05-05T20:13:02.887Z,14.90
2023-05-05T20:15:51.534Z,14.90
2023-05-05T20:18:40.400Z,14.80
2023-05-05T20:21:30.707Z,14.70
2023-05-05T20:24:19.263Z,14.60
2023-05-05T20:27:08.422Z,14.60
2023-05-05T20:29:57.151Z,14.50
2023-05-05T20:32:45.713Z,14.40
2023-05-05T20:35:34.285Z,14.30
2023-05-05T20:38:24.358Z,14.30
2023-05-05T20:41:12.922Z,14.20
2023-05-05T20:44:02.088Z,14.20
2023-05-05T20:46:50.689Z,14.20
2023-05-05T20:49:39.365Z,14.20
2023-05-05T20:52:28.029Z,14.20
2023-05-05T20:55:17.995Z,14.20
2023-05-05T20:58:07.977Z,14.10
2023-05-05T21:00:56.647Z,14.10
2023-05-05T21:03:45.163Z,14.00
2023-05-05T21:06:36.316Z,14.00
2023-05-05T21:09:25.303Z,13.90
2023-05-05T21:12:15.262Z,13.80
2023-05-05T21:15:04.118Z,13.70
2023-05-05T21:17:52.660Z,13.70
2023-05-05T21:20:41.267Z,13.60
2023-05-05T21:23:29.810Z,13.50
2023-05-05T21:26:18.393Z,13.40
2023-05-05T21:29:08.308Z,13.30
2023-05-05T21:31:56.865Z,13.20
2023-05-05T21:34:45.409Z,13.20
2023-05-05T21:37:34.014Z,13.10
2023-05-05T21:40:22.770Z,13.00
2023-05-05T21:43:11.292Z,12.90
2023-05-05T21:46:02.019Z,12.90
2023-05-05T21:48:50.778Z,12.80
2023-05-05T21:51:39.312Z,12.80
2023-05-05T21:54:27.812Z,12.70
2023-05-05T21:57:16.359Z,12.70
2023-05-05T22:00:05.776Z,12.60
2023-05-05T22:02:55.922Z,12.60
2023-05-05T22:05:44.645Z,12.50
2023-05-05T22:08:33.219Z,12.50
2023-05-05T22:11:21.821Z,12.50
2023-05-05T22:14:10.480Z,12.50
2023-05-05T22:16:58.970Z,12.40
2023-05-05T22:19:48.863Z,12.40
2023-05-05T22:22:37.534Z,12.30
2023-05-05T22:25:26.477Z,12.30
2023-05-05T22:28:14.973Z,12.20
2023-05-05T22:31:03.807Z,12.20
2023-05-05T22:33:52.419Z,12.10
2023-05-05T22:36:42.301Z,12.00
2023-05-05T22:39:30.851Z,12.00
2023-05-05T22:42:19.337Z,12.00
2023-05-05T22:45:09.671Z,12.00
2023-05-05T22:47:58.523Z,12.00
2023-05-05T22:50:47.207Z,11.90
2023-05-05T22:53:37.200Z,11.90
2023-05-05T22:56:25.685Z,11.90
2023-05-05T22:59:14.239Z,11.90
2023-05-05T23:02:03.086Z,11.90
2023-05-05T23:04:52.732Z,11.90
2023-05-05T23:07:41.326Z,12.00
2023-05-05T23:10:31.776Z,12.00
2023-05-05T23:13:20.518Z,12.00
2023-05-05T23:16:09.327Z,12.00
2023-05-05T23:18:57.784Z,11.90
2023-05-05T23:21:53.286Z,11.90
2023-05-05T23:24:42.574Z,11.90
2023-05-05T23:27:32.998Z,11.80
2023-05-05T23:30:21.716Z,11.80
2023-05-05T23:33:10.212Z,11.80
2023-05-05T23:35:58.713Z,11.80
2023-05-05T23:38:47.401Z,11.80
2023-05-05T23:41:36.144Z,11.80
2023-05-05T23:44:26.191Z,11.80
2023-05-05T23:47:14.723Z,11.80
2023-05-05T23:50:03.525Z,11.80
2023-05-05T23:52:52.110Z,11.70
2023-05-05T23:55:40.693Z,11.60
2023-05-05T23:58:29.232Z,11.60
